createdAt,value
2022-10-15T00:01:25.944Z,80.30
2022-10-15T00:03:53.737Z,80.30
2022-10-15T00:06:21.858Z,80.30
2022-10-15T00:08:49.771Z,80.30
2022-10-15T00:11:20.235Z,80.20
2022-10-15T00:13:49.132Z,80.30
2022-10-15T00:16:20.174Z,80.30
2022-10-15T00:18:48.409Z,80.30
2022-10-15T00:21:18.278Z,80.30
2022-10-15T00:23:46.511Z,80.30
2022-10-15T00:26:17.534Z,80.30
2022-10-15T00:28:46.210Z,80.30
2022-10-15T00:31:16.299Z,80.30
2022-10-15T00:33:51.059Z,80.30
2022-10-15T00:36:24.199Z,80.30
2022-10-15T00:38:53.010Z,80.30
2022-10-15T00:41:31.364Z,80.40
2022-10-15T00:44:22.930Z,80.30
2022-10-15T00:47:09.590Z,80.30
2022-10-15T00:49:37.075Z,80.30
2022-10-15T00:52:14.304Z,80.30
2022-10-15T00:54:45.638Z,80.30
2022-10-15T00:57:13.955Z,80.30
2022-10-15T00:59:50.960Z,80.30
2022-10-15T01:02:20.116Z,80.40
2022-10-15T01:04:49.283Z,80.30
2022-10-15T01:09:49.291Z,80.30
2022-10-15T01:12:42.803Z,80.30
2022-10-15T01:15:26.019Z,80.20
2022-10-15T01:18:15.035Z,80.20
2022-10-15T01:20:51.599Z,80.20
2022-10-15T01:23:31.475Z,80.20
2022-10-15T01:26:19.785Z,80.30
2022-10-15T01:29:08.318Z,80.30
2022-10-15T01:31:44.763Z,80.30
2022-10-15T01:37:02.383Z,80.30
2022-10-15T01:39:35.924Z,80.30
2022-10-15T01:42:13.273Z,80.30
2022-10-15T01:44:52.036Z,80.20
2022-10-15T01:47:48.516Z,80.30
2022-10-15T01:50:21.269Z,80.20
2022-10-15T01:52:51.839Z,80.20
2022-10-15T01:55:21.730Z,80.20
2022-10-15T01:57:50.476Z,80.20
2022-10-15T02:00:18.247Z,80.20
2022-10-15T02:02:45.748Z,80.30
2022-10-15T02:05:21.518Z,80.30
2022-10-15T02:08:32.532Z,80.30
2022-10-15T02:11:09.435Z,80.30
2022-10-15T02:13:46.884Z,80.30
2022-10-15T02:16:35.661Z,80.30
2022-10-15T02:19:21.648Z,80.30
2022-10-15T02:22:05.360Z,80.40
2022-10-15T02:24:58.821Z,80.30
2022-10-15T02:27:28.514Z,80.30
2022-10-15T02:29:58.563Z,80.30
2022-10-15T02:32:27.851Z,80.30
2022-10-15T02:34:56.798Z,80.30
2022-10-15T02:37:28.279Z,80.30
2022-10-15T02:39:56.054Z,80.30
2022-10-15T02:42:25.106Z,80.20
2022-10-15T02:44:53.620Z,80.30
2022-10-15T02:47:21.767Z,80.30
2022-10-15T02:49:49.363Z,80.40
2022-10-15T02:52:16.892Z,80.30
2022-10-15T02:54:44.552Z,80.30
2022-10-15T02:57:12.101Z,80.30
2022-10-15T02:59:42.588Z,80.20
2022-10-15T03:02:15.250Z,80.20
2022-10-15T03:04:47.021Z,80.20
2022-10-15T03:07:15.522Z,80.20
2022-10-15T03:09:43.448Z,80.10
2022-10-15T03:12:10.968Z,80.00
2022-10-15T03:14:38.518Z,80.30
2022-10-15T03:17:05.960Z,80.00
2022-10-15T03:19:33.670Z,80.20
2022-10-15T03:22:01.686Z,79.90
2022-10-15T03:24:39.764Z,79.90
2022-10-15T03:27:07.627Z,79.90
2022-10-15T03:29:35.483Z,79.90
2022-10-15T03:32:04.491Z,80.00
2022-10-15T03:34:32.672Z,80.00
2022-10-15T03:37:00.592Z,79.90
2022-10-15T03:39:28.552Z,79.90
2022-10-15T03:41:59.334Z,79.90
2022-10-15T03:44:35.139Z,79.80
2022-10-15T03:47:08.841Z,79.80
2022-10-15T03:50:02.543Z,79.80
2022-10-15T03:52:30.676Z,79.90
2022-10-15T03:54:59.852Z,79.90
2022-10-15T03:57:27.311Z,79.90
2022-10-15T04:00:00.990Z,79.90
2022-10-15T04:02:39.949Z,79.90
2022-10-15T04:05:17.343Z,79.90
2022-10-15T04:07:51.497Z,80.00
2022-10-15T04:10:21.207Z,80.00
2022-10-15T04:12:48.807Z,80.00
2022-10-15T04:15:18.397Z,80.00
2022-10-15T04:17:55.923Z,80.10
2022-10-15T04:20:25.720Z,80.10
2022-10-15T04:22:53.212Z,80.10
2022-10-15T04:25:20.777Z,80.10
2022-10-15T04:27:48.323Z,80.10
2022-10-15T04:30:18.469Z,80.10
2022-10-15T04:32:53.540Z,80.10
2022-10-15T04:35:21.948Z,80.00
2022-10-15T04:37:59.802Z,80.00
2022-10-15T04:40:30.592Z,80.00
2022-10-15T04:42:58.229Z,80.00
2022-10-15T04:45:25.970Z,80.00
2022-10-15T04:47:54.248Z,79.90
2022-10-15T04:50:22.358Z,79.90
2022-10-15T04:53:08.385Z,79.90
2022-10-15T04:55:39.141Z,79.90
2022-10-15T04:58:06.670Z,80.00
2022-10-15T05:00:34.204Z,80.00
2022-10-15T05:03:28.307Z,80.00
2022-10-15T05:06:06.342Z,80.00
2022-10-15T05:08:35.774Z,80.00
2022-10-15T05:11:13.247Z,80.00
2022-10-15T05:13:40.983Z,80.00
2022-10-15T05:16:24.031Z,80.60
2022-10-15T05:18:55.578Z,80.10
2022-10-15T05:21:23.161Z,80.10
2022-10-15T05:23:55.578Z,80.10
2022-10-15T05:26:51.717Z,80.10
2022-10-15T05:29:19.758Z,80.10
2022-10-15T05:31:51.206Z,80.10
2022-10-15T05:34:22.281Z,80.20
2022-10-15T05:37:03.157Z,80.20
2022-10-15T05:39:32.227Z,80.20
2022-10-15T05:42:00.443Z,80.20
2022-10-15T05:44:38.894Z,80.20
2022-10-15T05:47:06.892Z,80.30
2022-10-15T05:49:35.424Z,80.30
2022-10-15T05:52:10.174Z,80.30
2022-10-15T05:54:56.504Z,80.30
2022-10-15T05:57:24.123Z,80.30
2022-10-15T05:59:51.554Z,80.30
2022-10-15T06:02:19.145Z,80.30
2022-10-15T06:04:48.931Z,80.30
2022-10-15T06:07:16.535Z,80.40
2022-10-15T06:09:43.990Z,80.40
2022-10-15T06:12:11.825Z,80.40
2022-10-15T06:14:39.470Z,80.40
2022-10-15T06:17:07.413Z,80.40
2022-10-15T06:19:34.983Z,80.40
2022-10-15T06:22:02.452Z,80.30
2022-10-15T06:24:30.294Z,80.30
2022-10-15T06:27:00.183Z,80.30
2022-10-15T06:29:27.722Z,80.30
2022-10-15T06:31:56.809Z,80.30
2022-10-15T06:34:24.342Z,80.30
2022-10-15T06:36:52.508Z,80.30
2022-10-15T06:39:20.081Z,80.30
2022-10-15T06:41:47.516Z,80.30
2022-10-15T06:44:14.959Z,80.30
2022-10-15T06:46:42.487Z,80.30
2022-10-15T06:49:10.011Z,80.30
2022-10-15T06:51:40.218Z,80.30
2022-10-15T06:54:07.715Z,80.30
2022-10-15T06:56:35.220Z,80.30
2022-10-15T06:59:02.815Z,80.30
2022-10-15T07:01:30.235Z,80.30
2022-10-15T07:03:57.792Z,80.30
2022-10-15T07:06:25.999Z,80.30
2022-10-15T07:08:53.433Z,80.30
2022-10-15T07:11:21.067Z,80.40
2022-10-15T07:13:48.634Z,80.40
2022-10-15T07:16:16.253Z,80.40
2022-10-15T07:18:43.620Z,80.40
2022-10-15T07:21:12.018Z,80.40
2022-10-15T07:23:39.725Z,80.40
2022-10-15T07:26:07.642Z,80.50
2022-10-15T07:28:35.141Z,81.00
2022-10-15T07:31:04.498Z,80.60
2022-10-15T07:33:34.580Z,80.60
2022-10-15T07:36:07.318Z,80.60
2022-10-15T07:38:35.679Z,80.50
2022-10-15T07:41:04.439Z,80.60
2022-10-15T07:43:34.480Z,80.50
2022-10-15T07:46:03.345Z,80.50
2022-10-15T07:48:31.324Z,80.50
2022-10-15T07:51:04.366Z,80.50
2022-10-15T07:53:32.496Z,80.50
2022-10-15T07:56:07.073Z,80.50
2022-10-15T07:58:35.718Z,80.50
2022-10-15T08:01:04.249Z,80.50
2022-10-15T08:03:31.969Z,80.60
2022-10-15T08:06:04.355Z,80.60
2022-10-15T08:08:32.255Z,80.70
2022-10-15T08:11:04.516Z,80.80
2022-10-15T08:13:32.028Z,80.90
2022-10-15T08:16:00.324Z,81.00
2022-10-15T08:18:28.483Z,81.00
2022-10-15T08:20:59.753Z,81.00
2022-10-15T08:23:28.127Z,81.00
2022-10-15T08:25:57.521Z,81.00
2022-10-15T08:28:25.033Z,81.00
2022-10-15T08:30:52.583Z,81.00
2022-10-15T08:33:20.130Z,80.90
2022-10-15T08:35:47.760Z,81.00
2022-10-15T08:38:17.632Z,81.00
2022-10-15T08:41:00.234Z,81.10
2022-10-15T08:43:37.473Z,81.00
2022-10-15T08:46:11.823Z,80.90
2022-10-15T08:48:46.393Z,80.90
2022-10-15T08:51:24.610Z,80.90
2022-10-15T08:53:59.190Z,80.90
2022-10-15T08:56:40.409Z,80.90
2022-10-15T08:59:25.911Z,80.90
2022-10-15T09:02:20.665Z,80.90
2022-10-15T09:05:01.244Z,80.80
2022-10-15T09:07:50.835Z,80.70
2022-10-15T09:10:47.467Z,80.60
2022-10-15T09:13:38.188Z,80.60
2022-10-15T09:16:20.101Z,80.50
2022-10-15T09:18:51.670Z,80.50
2022-10-15T09:21:22.423Z,80.50
2022-10-15T09:23:50.117Z,80.40
2022-10-15T09:26:31.076Z,80.40
2022-10-15T09:29:23.104Z,81.00
2022-10-15T09:32:12.518Z,80.50
2022-10-15T09:35:02.140Z,80.50
2022-10-15T09:37:33.116Z,80.50
2022-10-15T09:40:25.087Z,80.60
2022-10-15T09:42:53.342Z,80.60
2022-10-15T09:45:24.323Z,80.60
2022-10-15T09:47:56.805Z,80.60
2022-10-15T09:50:26.349Z,80.60
2022-10-15T09:53:17.733Z,80.50
2022-10-15T09:56:08.064Z,80.50
2022-10-15T09:58:51.872Z,80.50
2022-10-15T10:01:27.353Z,80.40
2022-10-15T10:04:13.184Z,80.30
2022-10-15T10:06:59.645Z,80.30
2022-10-15T10:09:33.409Z,80.30
2022-10-15T10:12:05.363Z,80.20
2022-10-15T10:14:46.974Z,80.10
2022-10-15T10:17:19.101Z,80.00
2022-10-15T10:20:12.499Z,79.80
2022-10-15T10:22:54.990Z,79.80
2022-10-15T10:25:42.595Z,79.70
2022-10-15T10:28:10.194Z,79.60
2022-10-15T10:30:45.656Z,79.50
2022-10-15T10:33:15.824Z,79.50
2022-10-15T10:35:50.386Z,79.40
2022-10-15T10:38:30.416Z,79.20
2022-10-15T10:41:05.607Z,79.20
2022-10-15T10:43:39.081Z,79.30
2022-10-15T10:46:30.015Z,79.30
2022-10-15T10:48:59.003Z,79.50
2022-10-15T10:51:28.642Z,79.40
2022-10-15T10:53:58.679Z,79.40
2022-10-15T10:56:34.830Z,79.40
2022-10-15T10:59:25.849Z,79.30
2022-10-15T11:01:53.723Z,79.30
2022-10-15T11:04:31.215Z,79.30
2022-10-15T11:07:07.305Z,79.40
2022-10-15T11:09:37.891Z,79.40
2022-10-15T11:12:20.920Z,79.20
2022-10-15T11:15:22.349Z,79.30
2022-10-15T11:18:22.265Z,79.30
2022-10-15T11:21:17.361Z,79.10
2022-10-15T11:24:10.294Z,79.00
2022-10-15T11:26:51.984Z,78.90
2022-10-15T11:30:01.880Z,78.80
2022-10-15T11:32:37.408Z,78.90
2022-10-15T11:35:53.448Z,78.90
2022-10-15T11:38:42.682Z,79.10
2022-10-15T11:41:30.993Z,79.10
2022-10-15T11:44:17.211Z,79.20
2022-10-15T11:46:56.744Z,79.20
2022-10-15T11:49:33.085Z,79.20
2022-10-15T11:52:37.820Z,79.30
2022-10-15T11:55:22.855Z,79.00
2022-10-15T11:57:54.357Z,79.00
2022-10-15T12:00:44.169Z,78.90
2022-10-15T12:03:19.942Z,79.00
2022-10-15T12:06:04.070Z,78.80
2022-10-15T12:08:35.646Z,78.70
2022-10-15T12:11:12.287Z,79.00
2022-10-15T12:13:53.590Z,78.70
2022-10-15T12:16:45.309Z,78.60
2022-10-15T12:19:15.875Z,78.60
2022-10-15T12:21:55.481Z,78.40
2022-10-15T12:24:44.567Z,78.30
2022-10-15T12:27:21.028Z,78.40
2022-10-15T12:30:14.110Z,78.40
2022-10-15T12:32:46.327Z,78.30
2022-10-15T12:35:16.714Z,78.50
2022-10-15T12:37:46.577Z,78.30
2022-10-15T12:40:22.963Z,78.30
2022-10-15T12:42:53.868Z,78.00
2022-10-15T12:45:25.720Z,78.00
2022-10-15T12:47:54.471Z,78.00
2022-10-15T12:50:27.689Z,77.90
2022-10-15T12:53:02.227Z,77.50
2022-10-15T12:55:35.745Z,77.50
2022-10-15T12:58:35.429Z,77.40
2022-10-15T13:01:15.274Z,77.30
2022-10-15T13:03:51.762Z,77.40
2022-10-15T13:06:22.568Z,77.50
2022-10-15T13:09:12.459Z,77.40
2022-10-15T13:11:49.203Z,78.10
2022-10-15T13:14:19.428Z,77.40
2022-10-15T13:16:48.590Z,77.40
2022-10-15T13:19:33.070Z,77.30
2022-10-15T13:22:03.763Z,77.20
2022-10-15T13:24:43.373Z,77.20
2022-10-15T13:27:38.862Z,77.20
2022-10-15T13:30:13.506Z,77.30
2022-10-15T13:32:51.099Z,77.40
2022-10-15T13:35:32.678Z,77.40
2022-10-15T13:38:01.045Z,77.50
2022-10-15T13:40:30.553Z,77.50
2022-10-15T13:43:03.772Z,77.60
2022-10-15T13:45:31.567Z,77.60
2022-10-15T13:47:59.299Z,77.70
2022-10-15T13:50:30.049Z,77.70
2022-10-15T13:53:20.993Z,77.70
2022-10-15T13:55:51.788Z,77.80
2022-10-15T13:58:38.169Z,78.00
2022-10-15T14:01:08.871Z,78.00
2022-10-15T14:03:39.361Z,78.10
2022-10-15T14:06:21.448Z,78.20
2022-10-15T14:08:51.664Z,78.30
2022-10-15T14:11:19.627Z,78.30
2022-10-15T14:14:10.840Z,78.40
2022-10-15T14:16:46.146Z,78.50
2022-10-15T14:19:19.797Z,78.50
2022-10-15T14:21:52.052Z,78.60
2022-10-15T14:24:28.235Z,78.70
2022-10-15T14:26:56.024Z,78.70
2022-10-15T14:29:27.478Z,78.70
2022-10-15T14:31:55.654Z,79.40
2022-10-15T14:34:34.925Z,78.80
2022-10-15T14:37:04.178Z,78.90
2022-10-15T14:39:35.545Z,78.90
2022-10-15T14:42:06.131Z,79.00
2022-10-15T14:44:45.344Z,79.00
2022-10-15T14:47:25.598Z,79.00
2022-10-15T14:50:00.157Z,79.10
2022-10-15T14:52:30.697Z,79.20
2022-10-15T14:55:09.464Z,79.30
2022-10-15T14:57:43.354Z,79.30
2022-10-15T15:00:34.858Z,79.40
2022-10-15T15:03:07.163Z,79.40
2022-10-15T15:05:45.180Z,79.50
2022-10-15T15:08:13.061Z,79.20
2022-10-15T15:10:41.874Z,79.50
2022-10-15T15:13:20.689Z,79.60
2022-10-15T15:15:48.583Z,79.60
2022-10-15T15:18:16.710Z,79.70
2022-10-15T15:20:46.334Z,79.70
2022-10-15T15:23:23.401Z,79.80
2022-10-15T15:25:52.514Z,79.90
2022-10-15T15:28:22.418Z,79.90
2022-10-15T15:31:00.391Z,80.10
2022-10-15T15:33:29.078Z,80.00
2022-10-15T15:36:02.703Z,80.60
2022-10-15T15:38:33.093Z,80.10
2022-10-15T15:41:09.615Z,80.10
2022-10-15T15:43:37.451Z,80.10
2022-10-15T15:46:05.025Z,80.20
2022-10-15T15:48:32.521Z,80.20
2022-10-15T15:51:11.812Z,80.20
2022-10-15T15:53:39.362Z,80.30
2022-10-15T15:56:07.176Z,80.30
2022-10-15T15:58:34.673Z,80.30
2022-10-15T16:01:02.068Z,80.30
2022-10-15T16:03:29.493Z,80.30
2022-10-15T16:05:57.032Z,80.30
2022-10-15T16:08:24.548Z,80.30
2022-10-15T16:10:52.102Z,80.30
2022-10-15T16:13:21.724Z,80.30
2022-10-15T16:15:49.189Z,80.30
2022-10-15T16:18:16.631Z,80.30
2022-10-15T16:20:48.442Z,80.30
2022-10-15T16:23:17.155Z,80.30
2022-10-15T16:25:45.024Z,80.30
2022-10-15T16:28:12.625Z,80.30
2022-10-15T16:30:40.268Z,80.30
2022-10-15T16:35:40.649Z,80.30
2022-10-15T16:38:09.083Z,80.20
2022-10-15T16:40:36.583Z,80.10
2022-10-15T16:43:04.000Z,80.00
2022-10-15T16:45:31.681Z,80.00
2022-10-15T16:47:59.276Z,79.90
2022-10-15T16:50:26.742Z,79.90
2022-10-15T16:52:57.289Z,79.80
2022-10-15T16:55:24.883Z,79.80
2022-10-15T16:57:52.301Z,79.80
2022-10-15T17:00:19.822Z,79.70
2022-10-15T17:02:47.253Z,79.70
2022-10-15T17:05:15.377Z,79.80
2022-10-15T17:07:42.785Z,79.80
2022-10-15T17:10:13.929Z,79.70
2022-10-15T17:12:42.506Z,79.80
2022-10-15T17:15:10.271Z,80.40
2022-10-15T17:17:37.733Z,79.90
2022-10-15T17:20:05.633Z,79.90
2022-10-15T17:22:34.948Z,79.90
2022-10-15T17:25:02.450Z,79.90
2022-10-15T17:27:30.084Z,79.90
2022-10-15T17:29:57.861Z,80.00
2022-10-15T17:32:25.917Z,79.90
2022-10-15T17:34:53.658Z,80.00
2022-10-15T17:37:21.289Z,80.00
2022-10-15T17:39:48.884Z,80.00
2022-10-15T17:42:16.614Z,80.00
2022-10-15T17:44:44.046Z,80.10
2022-10-15T17:47:11.580Z,80.10
2022-10-15T17:49:39.295Z,80.10
2022-10-15T17:52:06.739Z,80.10
2022-10-15T17:54:34.387Z,80.10
2022-10-15T17:57:02.038Z,80.10
2022-10-15T17:59:30.727Z,80.20
2022-10-15T18:02:00.017Z,80.20
2022-10-15T18:04:29.697Z,80.10
2022-10-15T18:06:57.594Z,80.10
2022-10-15T18:09:26.568Z,80.10
2022-10-15T18:11:56.933Z,80.00
2022-10-15T18:14:28.747Z,80.00
2022-10-15T18:17:00.176Z,79.90
2022-10-15T18:19:29.207Z,79.80
2022-10-15T18:21:57.173Z,79.80
2022-10-15T18:24:25.238Z,79.70
2022-10-15T18:26:53.560Z,79.70
2022-10-15T18:29:26.965Z,79.60
2022-10-15T18:31:58.039Z,79.60
2022-10-15T18:34:33.786Z,79.90
2022-10-15T18:37:10.234Z,79.30
2022-10-15T18:39:43.910Z,79.30
2022-10-15T18:42:13.921Z,79.20
2022-10-15T18:44:47.745Z,79.10
2022-10-15T18:47:18.745Z,79.00
2022-10-15T18:49:48.073Z,78.90
2022-10-15T18:52:34.931Z,78.90
2022-10-15T18:55:08.887Z,78.90
2022-10-15T18:57:47.320Z,78.70
2022-10-15T19:00:22.059Z,78.80
2022-10-15T19:02:54.273Z,78.70
2022-10-15T19:05:25.138Z,78.70
2022-10-15T19:07:55.748Z,78.70
2022-10-15T19:10:25.415Z,78.70
2022-10-15T19:12:57.803Z,78.70
2022-10-15T19:15:27.187Z,78.70
2022-10-15T19:17:56.569Z,78.60
2022-10-15T19:20:28.464Z,78.60
2022-10-15T19:23:01.132Z,78.60
2022-10-15T19:25:29.090Z,78.60
2022-10-15T19:28:00.764Z,78.60
2022-10-15T19:30:32.177Z,78.60
2022-10-15T19:33:01.060Z,78.60
2022-10-15T19:35:37.832Z,78.60
2022-10-15T19:38:09.370Z,78.60
2022-10-15T19:40:45.871Z,78.60
2022-10-15T19:43:23.155Z,78.60
2022-10-15T19:45:54.095Z,78.60
2022-10-15T19:48:26.068Z,78.50
2022-10-15T19:50:54.750Z,78.50
2022-10-15T19:53:26.465Z,78.50
2022-10-15T19:56:02.924Z,78.70
2022-10-15T19:58:33.395Z,78.50
2022-10-15T20:01:05.834Z,78.50
2022-10-15T20:03:37.864Z,78.50
2022-10-15T20:06:11.628Z,78.50
2022-10-15T20:08:40.280Z,78.50
2022-10-15T20:11:08.657Z,78.50
2022-10-15T20:13:36.809Z,78.50
2022-10-15T20:16:08.902Z,78.50
2022-10-15T20:18:40.420Z,78.40
2022-10-15T20:21:10.614Z,78.40
2022-10-15T20:23:43.117Z,78.40
2022-10-15T20:26:16.490Z,78.40
2022-10-15T20:28:49.018Z,78.30
2022-10-15T20:31:20.906Z,78.40
2022-10-15T20:33:52.254Z,78.30
2022-10-15T20:36:23.890Z,78.30
2022-10-15T20:38:52.307Z,78.30
2022-10-15T20:41:20.195Z,78.30
2022-10-15T20:43:54.289Z,78.30
2022-10-15T20:46:30.322Z,78.30
2022-10-15T20:49:03.375Z,78.30
2022-10-15T20:51:33.758Z,78.30
2022-10-15T20:54:02.023Z,78.30
2022-10-15T20:56:29.580Z,78.30
2022-10-15T20:58:57.099Z,78.30
2022-10-15T21:01:25.047Z,78.20
2022-10-15T21:03:52.573Z,78.20
2022-10-15T21:06:20.880Z,78.20
2022-10-15T21:08:48.482Z,78.20
2022-10-15T21:11:16.411Z,78.20
2022-10-15T21:13:44.059Z,78.20
2022-10-15T21:16:11.921Z,78.20
2022-10-15T21:18:39.919Z,78.10
2022-10-15T21:21:09.901Z,78.10
2022-10-15T21:23:38.357Z,78.10
2022-10-15T21:26:12.696Z,78.10
2022-10-15T21:28:40.804Z,78.60
2022-10-15T21:31:17.000Z,78.10
2022-10-15T21:33:45.205Z,78.00
2022-10-15T21:36:27.224Z,78.10
2022-10-15T21:38:59.575Z,78.00
2022-10-15T21:41:30.875Z,78.10
2022-10-15T21:43:58.973Z,78.10
2022-10-15T21:46:26.979Z,78.10
2022-10-15T21:48:55.084Z,78.00
2022-10-15T21:51:25.591Z,78.10
2022-10-15T21:53:53.780Z,78.10
2022-10-15T21:56:21.608Z,78.00
2022-10-15T21:58:49.535Z,78.10
2022-10-15T22:01:25.214Z,78.10
2022-10-15T22:03:57.617Z,78.10
2022-10-15T22:06:25.291Z,78.10
2022-10-15T22:08:53.271Z,78.30
2022-10-15T22:14:01.574Z,78.20
2022-10-15T22:16:29.869Z,78.10
2022-10-15T22:18:57.998Z,78.20
2022-10-15T22:21:28.795Z,78.10
2022-10-15T22:24:01.799Z,78.10
2022-10-15T22:26:32.624Z,78.10
2022-10-15T22:29:01.998Z,78.00
2022-10-15T22:31:29.746Z,78.00
2022-10-15T22:33:58.751Z,78.10
2022-10-15T22:36:29.016Z,78.10
2022-10-15T22:39:05.573Z,78.10
2022-10-15T22:41:36.061Z,78.60
2022-10-15T22:44:03.805Z,78.00
2022-10-15T22:46:36.757Z,78.00
2022-10-15T22:49:05.479Z,78.00
2022-10-15T22:51:35.442Z,78.00
2022-10-15T22:54:03.153Z,78.00
2022-10-15T22:56:30.834Z,78.00
2022-10-15T22:58:59.589Z,78.50
2022-10-15T23:01:32.428Z,77.90
2022-10-15T23:04:03.732Z,77.90
2022-10-15T23:06:33.122Z,77.90
2022-10-15T23:09:01.495Z,77.90
2022-10-15T23:11:33.873Z,77.80
2022-10-15T23:14:04.304Z,77.80
2022-10-15T23:16:34.984Z,77.80
2022-10-15T23:19:06.530Z,77.70
2022-10-15T23:21:37.296Z,77.70
2022-10-15T23:24:06.685Z,77.70
2022-10-15T23:26:36.737Z,77.70
2022-10-15T23:29:06.052Z,77.70
2022-10-15T23:31:36.280Z,77.60
2022-10-15T23:34:05.455Z,77.60
2022-10-15T23:36:34.789Z,77.60
2022-10-15T23:39:04.651Z,77.60
2022-10-15T23:41:32.585Z,77.50
2022-10-15T23:44:00.835Z,77.50
2022-10-15T23:46:28.317Z,78.00
2022-10-15T23:48:55.770Z,77.50
2022-10-15T23:51:31.274Z,77.50
2022-10-15T23:53:59.947Z,77.50
2022-10-15T23:56:28.139Z,77.60
2022-10-15T23:58:59.286Z,77.70
